createdAt,value
2019-02-28T00:00:37.201Z,10.83
2019-02-28T00:03:43.117Z,12.57
2019-02-28T00:06:47.917Z,10.23
2019-02-28T00:09:52.649Z,10.27
2019-02-28T00:12:57.074Z,11.40
2019-02-28T00:16:03.375Z,12.37
2019-02-28T00:19:07.664Z,13.17
2019-02-28T00:22:14.640Z,13.33
2019-02-28T00:25:18.549Z,13.33
2019-02-28T00:28:25.548Z,11.83
2019-02-28T00:31:29.546Z,10.10
2019-02-28T00:34:36.296Z,10.13
2019-02-28T00:37:40.156Z,9.13
2019-02-28T00:40:44.598Z,9.97
2019-02-28T00:43:49.288Z,12.67
2019-02-28T00:46:53.731Z,13.67
2019-02-28T00:49:58.156Z,9.13
2019-02-28T00:53:02.602Z,11.60
2019-02-28T00:56:07.398Z,12.13
2019-02-28T00:59:12.125Z,9.90
2019-02-28T01:02:17.685Z,10.20
2019-02-28T01:05:22.723Z,10.60
2019-02-28T01:08:27.459Z,10.13
2019-02-28T01:11:32.062Z,12.67
2019-02-28T01:14:36.674Z,10.53
2019-02-28T01:17:41.535Z,11.17
2019-02-28T01:20:49.953Z,10.67
2019-02-28T01:23:52.433Z,8.97
2019-02-28T01:26:56.869Z,8.83
2019-02-28T01:30:01.296Z,8.23
2019-02-28T01:33:05.740Z,8.03
2019-02-28T01:36:12.178Z,11.40
2019-02-28T01:39:16.906Z,10.93
2019-02-28T01:42:21.795Z,8.93
2019-02-28T01:45:26.567Z,10.27
2019-02-28T01:48:31.009Z,9.13
2019-02-28T01:51:36.699Z,11.13
2019-02-28T01:54:41.240Z,12.63
2019-02-28T01:57:45.692Z,13.30
2019-02-28T02:00:50.425Z,10.47
2019-02-28T02:03:55.158Z,9.70
2019-02-28T02:07:00.404Z,11.30
2019-02-28T02:10:10.765Z,8.77
2019-02-28T02:13:15.215Z,10.13
2019-02-28T02:16:19.653Z,11.43
2019-02-28T02:19:24.087Z,10.37
2019-02-28T02:22:28.522Z,8.63
2019-02-28T02:25:37.268Z,11.27
2019-02-28T02:28:39.130Z,11.83
2019-02-28T02:31:43.887Z,12.53
2019-02-28T02:34:48.615Z,8.90
2019-02-28T02:37:53.335Z,10.27
2019-02-28T02:41:00.567Z,12.80
2019-02-28T02:44:04.545Z,10.13
2019-02-28T02:47:08.970Z,9.83
2019-02-28T02:50:16.891Z,11.40
2019-02-28T02:53:21.331Z,8.03
2019-02-28T02:56:26.019Z,11.07
2019-02-28T02:59:37.238Z,9.37
2019-02-28T03:02:36.629Z,8.40
2019-02-28T03:05:41.342Z,12.13
2019-02-28T03:08:45.794Z,9.93
2019-02-28T03:11:50.493Z,11.63
2019-02-28T03:14:55.063Z,12.07
2019-02-28T03:17:59.755Z,8.20
2019-02-28T03:21:04.500Z,11.33
2019-02-28T03:24:14.563Z,10.83
2019-02-28T03:27:19.204Z,11.17
2019-02-28T03:30:28.936Z,9.07
2019-02-28T03:33:29.214Z,7.20
2019-02-28T03:36:34.076Z,10.00
2019-02-28T03:39:38.524Z,10.40
2019-02-28T03:42:42.966Z,8.90
2019-02-28T03:45:47.413Z,9.57
2019-02-28T03:48:51.861Z,10.20
2019-02-28T03:51:56.294Z,9.07
2019-02-28T03:55:03.363Z,9.47
2019-02-28T03:58:07.252Z,9.50
2019-02-28T04:01:12.023Z,11.70
2019-02-28T04:04:16.751Z,10.30
2019-02-28T04:07:21.479Z,12.90
2019-02-28T04:10:25.931Z,10.87
2019-02-28T04:13:30.374Z,11.47
2019-02-28T04:16:34.808Z,11.73
2019-02-28T04:19:39.587Z,12.70
2019-02-28T04:22:44.016Z,11.20
2019-02-28T04:25:48.463Z,8.97
2019-02-28T04:28:54.699Z,11.53
2019-02-28T04:31:59.073Z,9.93
2019-02-28T04:35:03.986Z,12.93
2019-02-28T04:38:08.643Z,10.57
2019-02-28T04:41:13.422Z,11.53
2019-02-28T04:44:18.232Z,9.67
2019-02-28T04:47:23.460Z,11.63
2019-02-28T04:50:31.264Z,14.80
2019-02-28T04:53:34.037Z,9.70
2019-02-28T04:56:38.712Z,10.20
2019-02-28T04:59:43.400Z,10.73
2019-02-28T05:02:47.833Z,9.90
2019-02-28T05:05:52.275Z,15.17
2019-02-28T05:08:56.703Z,11.37
2019-02-28T05:12:02.462Z,10.77
2019-02-28T05:15:10.836Z,10.83
2019-02-28T05:18:15.270Z,11.87
2019-02-28T05:21:20.283Z,12.17
2019-02-28T05:24:24.714Z,9.93
2019-02-28T05:27:34.942Z,11.77
2019-02-28T05:30:35.327Z,10.93
2019-02-28T05:33:41.889Z,14.13
2019-02-28T05:36:46.258Z,13.47
2019-02-28T05:39:50.685Z,13.93
2019-02-28T05:42:58.501Z,12.10
2019-02-28T05:46:01.590Z,13.57
2019-02-28T05:49:08.650Z,13.17
2019-02-28T05:52:12.770Z,11.30
2019-02-28T05:55:17.507Z,14.47
2019-02-28T05:58:21.952Z,10.43
2019-02-28T06:01:26.656Z,11.23
2019-02-28T06:04:31.091Z,13.87
2019-02-28T06:07:35.826Z,13.30
2019-02-28T06:10:40.274Z,14.25
2019-02-28T06:13:44.709Z,9.90
2019-02-28T06:16:49.150Z,14.83
2019-02-28T06:19:53.611Z,13.90
2019-02-28T06:22:58.166Z,11.80
2019-02-28T06:26:02.865Z,12.10
2019-02-28T06:29:07.630Z,9.87
2019-02-28T06:32:13.607Z,14.43
2019-02-28T06:35:20.357Z,9.50
2019-02-28T06:38:24.864Z,13.57
2019-02-28T06:41:29.301Z,13.93
2019-02-28T06:44:33.737Z,14.10
2019-02-28T06:47:39.097Z,18.43
2019-02-28T06:50:44.730Z,13.53
2019-02-28T06:53:49.986Z,13.73
2019-02-28T06:56:55.326Z,19.03
2019-02-28T06:59:59.914Z,15.17
2019-02-28T07:03:04.483Z,16.73
2019-02-28T07:06:08.886Z,15.10
2019-02-28T07:09:13.606Z,14.40
2019-02-28T07:12:18.063Z,14.40
2019-02-28T07:15:24.813Z,15.77
2019-02-28T07:18:28.742Z,13.93
2019-02-28T07:21:34.554Z,16.07
2019-02-28T07:24:39.109Z,18.07
2019-02-28T07:27:43.630Z,12.03
2019-02-28T07:30:50.298Z,12.63
2019-02-28T07:33:54.251Z,14.07
2019-02-28T07:36:58.700Z,29.57
2019-02-28T07:40:03.585Z,24.13
2019-02-28T07:43:12.030Z,26.73
2019-02-28T07:46:14.191Z,28.30
2019-02-28T07:49:18.630Z,35.53
2019-02-28T07:52:23.071Z,34.80
2019-02-28T07:55:30.507Z,21.27
2019-02-28T07:58:34.123Z,23.07
2019-02-28T08:01:38.555Z,20.57
2019-02-28T08:04:43.717Z,21.37
2019-02-28T08:07:52.069Z,22.93
2019-02-28T08:10:54.873Z,27.47
2019-02-28T08:13:59.606Z,13.87
2019-02-28T08:17:05.505Z,19.57
2019-02-28T08:20:10.602Z,18.10
2019-02-28T08:23:15.336Z,16.27
2019-02-28T08:26:19.799Z,17.87
2019-02-28T08:29:24.485Z,18.93
2019-02-28T08:32:28.918Z,15.53
2019-02-28T08:35:34.800Z,15.20
2019-02-28T08:38:39.537Z,16.00
2019-02-28T08:41:44.041Z,19.37
2019-02-28T08:44:48.485Z,15.57
2019-02-28T08:47:56.782Z,13.97
2019-02-28T08:50:59.797Z,16.13
2019-02-28T08:54:06.035Z,15.13
2019-02-28T08:57:10.562Z,17.73
2019-02-28T09:00:21.219Z,20.60
2019-02-28T09:03:27.233Z,19.97
2019-02-28T09:06:32.126Z,24.27
2019-02-28T09:09:36.950Z,20.30
2019-02-28T09:12:41.781Z,17.33
2019-02-28T09:15:46.621Z,21.27
2019-02-28T09:18:51.073Z,23.80
2019-02-28T09:21:55.517Z,23.03
2019-02-28T09:25:00.297Z,20.57
2019-02-28T09:28:04.813Z,25.10
2019-02-28T09:31:09.658Z,19.70
2019-02-28T09:34:14.116Z,23.37
2019-02-28T09:37:18.807Z,23.77
2019-02-28T09:40:25.641Z,22.13
2019-02-28T09:43:29.436Z,23.23
2019-02-28T09:46:34.236Z,24.97
2019-02-28T09:49:38.677Z,26.87
2019-02-28T09:52:43.197Z,26.93
2019-02-28T09:55:47.637Z,23.47
2019-02-28T09:58:52.460Z,33.27
2019-02-28T10:02:01.301Z,22.37
2019-02-28T10:05:06.595Z,31.17
2019-02-28T10:08:09.696Z,23.97
2019-02-28T10:11:14.170Z,24.53
2019-02-28T10:14:18.646Z,23.07
2019-02-28T10:17:25.861Z,20.70
2019-02-28T10:20:39.310Z,22.93
2019-02-28T10:23:43.742Z,16.77
2019-02-28T10:26:51.520Z,21.70
2019-02-28T10:29:54.690Z,18.90
2019-02-28T10:32:59.135Z,17.13
2019-02-28T10:36:03.584Z,17.92
2019-02-28T10:39:08.873Z,17.82
2019-02-28T10:42:14.209Z,19.32
2019-02-28T10:45:19.068Z,17.20
2019-02-28T10:48:23.579Z,17.23
2019-02-28T10:51:28.331Z,16.95
2019-02-28T10:54:32.781Z,16.87
2019-02-28T10:57:40.690Z,17.92
2019-02-28T11:00:45.630Z,16.05
2019-02-28T11:03:50.415Z,18.23
2019-02-28T11:06:54.870Z,18.77
2019-02-28T11:10:01.823Z,14.33
2019-02-28T11:13:12.821Z,15.03
2019-02-28T11:16:20.529Z,16.30
2019-02-28T11:19:23.695Z,14.83
2019-02-28T11:22:28.216Z,17.42
2019-02-28T11:25:35.532Z,15.48
2019-02-28T11:28:39.218Z,18.40
2019-02-28T11:31:43.670Z,11.80
2019-02-28T11:34:48.665Z,13.22
2019-02-28T11:37:53.883Z,13.95
2019-02-28T11:40:58.478Z,15.88
2019-02-28T11:44:03.177Z,14.05
2019-02-28T11:47:08.430Z,16.97
2019-02-28T11:50:13.879Z,13.98
2019-02-28T11:53:19.236Z,18.07
2019-02-28T11:56:25.580Z,13.95
2019-02-28T11:59:30.067Z,12.20
2019-02-28T12:02:34.528Z,13.30
2019-02-28T12:05:39.264Z,11.95
2019-02-28T12:08:45.112Z,15.53
2019-02-28T12:11:50.121Z,16.77
2019-02-28T12:14:54.576Z,18.42
2019-02-28T12:18:03.629Z,14.97
2019-02-28T12:21:05.494Z,17.25
2019-02-28T12:24:09.926Z,18.90
2019-02-28T12:27:14.379Z,16.32
2019-02-28T12:30:25.098Z,19.77
2019-02-28T12:33:28.871Z,21.85
2019-02-28T12:36:33.566Z,22.60
2019-02-28T12:39:38.368Z,17.35
2019-02-28T12:42:42.819Z,15.58
2019-02-28T12:45:47.905Z,17.60
2019-02-28T12:48:52.356Z,19.77
2019-02-28T12:51:57.081Z,18.50
2019-02-28T12:55:04.016Z,17.48
2019-02-28T12:58:07.989Z,20.43
2019-02-28T13:01:12.432Z,15.95
2019-02-28T13:04:17.140Z,16.90
2019-02-28T13:07:21.863Z,15.13
2019-02-28T13:10:27.923Z,13.30
2019-02-28T13:13:33.171Z,15.75
2019-02-28T13:16:37.616Z,17.85
2019-02-28T13:19:42.074Z,15.85
2019-02-28T13:22:46.860Z,15.68
2019-02-28T13:25:51.788Z,14.18
2019-02-28T13:28:57.446Z,20.20
2019-02-28T13:32:02.811Z,17.05
2019-02-28T13:35:14.082Z,17.70
2019-02-28T13:38:19.725Z,17.02
2019-02-28T13:41:26.764Z,18.20
2019-02-28T13:44:31.589Z,14.80
2019-02-28T13:47:37.202Z,13.85
2019-02-28T13:50:41.650Z,17.80
2019-02-28T13:53:46.178Z,16.30
2019-02-28T13:56:50.873Z,15.55
2019-02-28T13:59:55.605Z,13.18
2019-02-28T14:03:09.479Z,15.10
2019-02-28T14:06:18.740Z,15.45
2019-02-28T14:09:22.189Z,15.18
2019-02-28T14:12:26.140Z,14.28
2019-02-28T14:15:52.375Z,16.55
2019-02-28T14:18:56.852Z,17.23
2019-02-28T14:22:01.294Z,16.37
2019-02-28T14:25:09.183Z,14.35
2019-02-28T14:28:13.923Z,18.00
2019-02-28T14:31:18.367Z,15.10
2019-02-28T14:34:26.156Z,16.05
2019-02-28T14:37:29.021Z,13.18
2019-02-28T14:40:33.477Z,13.22
2019-02-28T14:43:37.932Z,17.12
2019-02-28T14:46:42.521Z,15.65
2019-02-28T14:49:46.986Z,16.37
2019-02-28T14:52:55.435Z,15.80
2019-02-28T14:55:59.928Z,13.62
2019-02-28T14:59:04.375Z,15.23
2019-02-28T15:02:08.834Z,15.60
2019-02-28T15:05:16.689Z,15.95
2019-02-28T15:08:22.191Z,14.30
2019-02-28T15:11:27.004Z,15.53
2019-02-28T15:14:31.465Z,16.42
2019-02-28T15:17:38.670Z,13.93
2019-02-28T15:20:42.427Z,11.88
2019-02-28T15:23:46.880Z,13.00
2019-02-28T15:26:51.325Z,13.78
2019-02-28T15:29:58.866Z,15.78
2019-02-28T15:33:02.595Z,11.60
2019-02-28T15:36:07.332Z,10.75
2019-02-28T15:39:12.037Z,18.95
2019-02-28T15:42:16.549Z,22.77
2019-02-28T15:45:21.010Z,16.67
2019-02-28T15:48:25.469Z,19.67
2019-02-28T15:51:30.333Z,21.53
2019-02-28T15:54:34.775Z,17.83
2019-02-28T15:57:39.812Z,20.67
2019-02-28T16:00:44.544Z,21.83
2019-02-28T16:03:51.286Z,17.60
2019-02-28T16:06:57.955Z,19.47
2019-02-28T16:10:02.007Z,19.30
2019-02-28T16:13:08.174Z,17.17
2019-02-28T16:16:12.626Z,21.73
2019-02-28T16:19:18.872Z,26.00
2019-02-28T16:22:23.244Z,31.13
2019-02-28T16:25:34.232Z,23.57
2019-02-28T16:28:39.535Z,25.20
2019-02-28T16:31:44.923Z,29.87
2019-02-28T16:34:49.435Z,28.70
2019-02-28T16:37:53.885Z,20.50
2019-02-28T16:41:00.825Z,23.10
2019-02-28T16:44:04.801Z,25.50
2019-02-28T16:47:09.567Z,20.03
2019-02-28T16:50:15.379Z,22.60
2019-02-28T16:53:20.835Z,23.23
2019-02-28T16:56:25.667Z,21.50
2019-02-28T16:59:31.544Z,20.13
2019-02-28T17:02:36.869Z,21.03
2019-02-28T17:05:41.321Z,22.50
2019-02-28T17:08:47.668Z,17.83
2019-02-28T17:11:54.029Z,17.73
2019-02-28T17:14:58.498Z,18.20
2019-02-28T17:18:04.934Z,17.90
2019-02-28T17:21:09.390Z,18.70
2019-02-28T17:24:13.845Z,15.77
2019-02-28T17:27:20.247Z,14.07
2019-02-28T17:30:29.671Z,14.90
2019-02-28T17:33:34.732Z,14.90
2019-02-28T17:36:39.192Z,14.37
2019-02-28T17:39:44.026Z,18.67
2019-02-28T17:42:49.671Z,17.87
2019-02-28T17:45:55.080Z,16.13
2019-02-28T17:49:26.389Z,18.33
2019-02-28T17:52:59.754Z,17.40
2019-02-28T17:56:30.990Z,16.40
2019-02-28T17:59:59.442Z,15.90
2019-02-28T18:03:26.118Z,19.20
2019-02-28T18:06:52.239Z,19.40
2019-02-28T18:10:13.266Z,17.30
2019-02-28T18:13:43.084Z,19.90
2019-02-28T18:17:21.294Z,19.33
2019-02-28T18:21:00.716Z,16.67
2019-02-28T18:24:27.808Z,16.57
2019-02-28T18:28:03.481Z,18.93
2019-02-28T18:31:12.994Z,14.97
2019-02-28T18:34:20.535Z,18.70
2019-02-28T18:37:24.506Z,16.60
2019-02-28T18:40:29.143Z,14.50
2019-02-28T18:43:33.587Z,13.60
2019-02-28T18:46:38.053Z,14.03
2019-02-28T18:49:42.503Z,11.47
2019-02-28T18:52:47.239Z,13.97
2019-02-28T18:55:51.971Z,11.73
2019-02-28T18:58:56.704Z,12.07
2019-02-28T19:02:01.151Z,15.60
2019-02-28T19:05:07.256Z,10.00
2019-02-28T19:08:11.803Z,10.87
2019-02-28T19:11:16.352Z,11.07
2019-02-28T19:14:20.789Z,9.63
2019-02-28T19:17:25.496Z,12.77
2019-02-28T19:20:29.931Z,16.07
2019-02-28T19:23:34.665Z,15.10
2019-02-28T19:26:39.379Z,10.67
2019-02-28T19:29:43.811Z,9.87
2019-02-28T19:32:48.271Z,8.60
2019-02-28T19:35:52.968Z,10.27
2019-02-28T19:38:57.419Z,10.47
2019-02-28T19:42:02.240Z,11.73
2019-02-28T19:45:38.291Z,11.90
2019-02-28T19:48:42.744Z,10.00
2019-02-28T19:51:47.204Z,11.97
2019-02-28T19:54:51.640Z,11.40
2019-02-28T19:57:56.388Z,9.77
2019-02-28T20:01:00.829Z,11.47
2019-02-28T20:04:05.639Z,11.27
2019-02-28T20:07:10.476Z,8.83
2019-02-28T20:10:18.062Z,8.57
2019-02-28T20:13:22.797Z,12.43
2019-02-28T20:16:27.535Z,9.73
2019-02-28T20:19:31.973Z,7.20
2019-02-28T20:22:36.493Z,10.43
2019-02-28T20:25:40.929Z,6.33
2019-02-28T20:28:45.865Z,9.23
2019-02-28T20:31:50.571Z,13.40
2019-02-28T20:34:55.304Z,11.70
2019-02-28T20:38:00.034Z,15.97
2019-02-28T20:41:04.867Z,11.67
2019-02-28T20:44:09.327Z,12.17
2019-02-28T20:47:14.022Z,9.70
2019-02-28T20:50:23.556Z,8.03
2019-02-28T20:53:27.998Z,15.27
2019-02-28T20:56:32.439Z,13.73
2019-02-28T20:59:36.894Z,12.20
2019-02-28T21:02:41.352Z,12.57
2019-02-28T21:05:45.867Z,14.07
2019-02-28T21:08:50.615Z,10.33
2019-02-28T21:11:55.059Z,11.60
2019-02-28T21:15:01.322Z,11.33
2019-02-28T21:18:06.446Z,9.50
2019-02-28T21:21:11.205Z,13.77
2019-02-28T21:24:15.628Z,11.37
2019-02-28T21:27:20.073Z,9.60
2019-02-28T21:30:27.314Z,10.60
2019-02-28T21:33:31.766Z,15.43
2019-02-28T21:36:36.212Z,12.90
2019-02-28T21:39:40.658Z,9.83
2019-02-28T21:42:45.096Z,14.43
2019-02-28T21:45:49.559Z,12.53
2019-02-28T21:48:54.266Z,10.37
2019-02-28T21:51:58.995Z,10.53
2019-02-28T21:55:04.318Z,7.83
2019-02-28T21:58:09.073Z,12.30
2019-02-28T22:01:13.512Z,13.60
2019-02-28T22:04:17.957Z,8.73
2019-02-28T22:07:22.754Z,10.73
2019-02-28T22:10:27.211Z,11.33
2019-02-28T22:13:32.007Z,11.93
2019-02-28T22:16:36.739Z,7.30
2019-02-28T22:19:41.187Z,10.33
2019-02-28T22:22:46.000Z,7.40
2019-02-28T22:25:50.729Z,4.80
2019-02-28T22:28:55.177Z,8.73
2019-02-28T22:32:07.577Z,6.60
2019-02-28T22:35:14.037Z,7.43
2019-02-28T22:38:18.483Z,10.43
2019-02-28T22:41:23.188Z,8.23
2019-02-28T22:44:27.635Z,11.07
2019-02-28T22:47:32.073Z,8.00
2019-02-28T22:50:36.519Z,6.17
2019-02-28T22:53:41.294Z,7.47
2019-02-28T22:56:46.572Z,7.37
2019-02-28T22:59:51.019Z,5.37
2019-02-28T23:02:55.461Z,7.30
2019-02-28T23:05:59.977Z,10.73
2019-02-28T23:09:05.270Z,4.40
2019-02-28T23:12:09.981Z,5.70
2019-02-28T23:15:14.730Z,5.30
2019-02-28T23:18:19.177Z,3.87
2019-02-28T23:21:23.618Z,5.00
2019-02-28T23:24:28.090Z,6.83
2019-02-28T23:27:32.812Z,4.20
2019-02-28T23:30:57.108Z,4.50
2019-02-28T23:34:14.486Z,6.70
2019-02-28T23:37:19.267Z,5.43
2019-02-28T23:40:23.703Z,5.47
2019-02-28T23:43:28.425Z,3.30
2019-02-28T23:46:33.156Z,6.90
2019-02-28T23:49:37.590Z,5.47
2019-02-28T23:52:42.040Z,10.90
2019-02-28T23:55:46.530Z,10.63
2019-02-28T23:58:51.262Z,5.60
